createdAt,value
2022-08-27T00:10:55.182Z,100.00
2022-08-27T00:25:50.044Z,100.00
2022-08-27T00:40:42.410Z,100.00
2022-08-27T00:55:38.020Z,100.00
2022-08-27T01:10:33.587Z,100.00
2022-08-27T01:25:25.888Z,100.00
2022-08-27T01:40:22.209Z,100.00
2022-08-27T01:55:15.067Z,100.00
2022-08-27T02:10:08.268Z,100.00
2022-08-27T02:25:00.463Z,100.00
2022-08-27T02:39:52.886Z,100.00
2022-08-27T02:54:50.226Z,100.00
2022-08-27T03:09:41.580Z,100.00
2022-08-27T03:24:34.866Z,100.00
2022-08-27T03:39:27.301Z,100.00
2022-08-27T03:54:19.939Z,100.00
2022-08-27T04:09:11.854Z,100.00
2022-08-27T04:24:05.792Z,100.00
2022-08-27T04:38:58.862Z,100.00
2022-08-27T04:53:52.010Z,100.00
2022-08-27T05:08:44.223Z,100.00
2022-08-27T05:23:37.240Z,100.00
2022-08-27T05:38:30.098Z,100.00
2022-08-27T05:53:22.258Z,100.00
2022-08-27T06:08:14.593Z,100.00
2022-08-27T06:23:07.312Z,100.00
2022-08-27T06:38:00.194Z,100.00
2022-08-27T06:52:53.090Z,100.00
2022-08-27T07:07:48.837Z,100.00
2022-08-27T07:22:46.087Z,99.18
2022-08-27T07:37:47.650Z,92.28
2022-08-27T07:52:39.367Z,92.34
2022-08-27T08:07:32.672Z,92.79
2022-08-27T08:22:22.807Z,94.59
2022-08-27T08:37:15.018Z,95.00
2022-08-27T08:52:34.329Z,97.39
2022-08-27T09:07:35.080Z,98.18
2022-08-27T09:22:39.133Z,100.00
2022-08-27T09:37:43.905Z,100.00
2022-08-27T09:52:56.128Z,100.00
2022-08-27T10:07:53.022Z,100.00
2022-08-27T10:23:10.525Z,100.00
2022-08-27T10:38:24.922Z,100.00
2022-08-27T10:53:32.381Z,100.00
2022-08-27T11:08:41.253Z,100.00
2022-08-27T11:23:38.571Z,100.00
2022-08-27T11:38:34.077Z,100.00
2022-08-27T11:53:32.409Z,100.00
2022-08-27T12:08:31.272Z,100.00
2022-08-27T12:23:42.284Z,100.00
2022-08-27T12:38:46.908Z,100.00
2022-08-27T12:53:44.462Z,100.00
2022-08-27T13:08:38.584Z,100.00
2022-08-27T13:23:31.412Z,100.00
2022-08-27T13:38:24.754Z,100.00
2022-08-27T13:53:39.132Z,100.00
2022-08-27T14:08:37.482Z,100.00
2022-08-27T14:23:31.162Z,100.00
2022-08-27T14:38:22.650Z,100.00
2022-08-27T14:53:15.400Z,92.30
2022-08-27T15:08:11.275Z,82.95
2022-08-27T15:23:06.430Z,81.62
2022-08-27T15:38:03.044Z,79.56
2022-08-27T15:52:53.527Z,77.19
2022-08-27T16:07:44.517Z,79.86
2022-08-27T16:22:35.372Z,78.68
2022-08-27T16:37:27.411Z,79.08
2022-08-27T16:52:18.544Z,78.71
2022-08-27T17:07:11.325Z,81.10
2022-08-27T17:22:03.905Z,81.13
2022-08-27T17:36:55.474Z,83.49
2022-08-27T17:51:48.636Z,86.62
2022-08-27T18:06:40.873Z,86.78
2022-08-27T18:21:32.274Z,86.85
2022-08-27T18:36:25.490Z,87.51
2022-08-27T18:51:19.609Z,89.88
2022-08-27T19:06:11.926Z,91.30
2022-08-27T19:21:09.574Z,93.32
2022-08-27T19:35:56.591Z,94.22
2022-08-27T19:50:48.803Z,94.35
2022-08-27T20:05:52.022Z,95.11
2022-08-27T20:35:55.831Z,93.66
2022-08-27T20:52:30.489Z,85.10
2022-08-27T21:20:57.159Z,80.53
2022-08-27T21:35:49.570Z,78.53
2022-08-27T21:50:41.209Z,77.50
2022-08-27T22:05:32.707Z,76.84
2022-08-27T22:20:25.022Z,77.31
2022-08-27T22:35:16.973Z,78.17
2022-08-27T22:50:08.547Z,78.50
2022-08-27T23:05:02.502Z,78.70
2022-08-27T23:19:51.820Z,79.18
2022-08-27T23:34:45.797Z,79.46
2022-08-27T23:49:37.533Z,79.84
